createdAt,value
2018-09-18T00:04:03.895Z,18.03
2018-09-18T00:14:05.135Z,18.13
2018-09-18T00:24:06.366Z,19.43
2018-09-18T00:34:08.402Z,20.20
2018-09-18T00:44:09.758Z,18.53
2018-09-18T00:54:10.974Z,19.00
2018-09-18T01:04:13.035Z,19.50
2018-09-18T01:14:14.306Z,18.57
2018-09-18T01:24:15.574Z,17.47
2018-09-18T01:34:17.607Z,18.93
2018-09-18T01:44:18.896Z,18.27
2018-09-18T01:54:20.162Z,20.43
2018-09-18T02:04:21.414Z,19.23
2018-09-18T02:14:22.645Z,19.83
2018-09-18T02:24:23.910Z,21.17
2018-09-18T02:34:25.189Z,20.50
2018-09-18T02:44:26.440Z,18.93
2018-09-18T02:54:27.686Z,21.43
2018-09-18T03:04:28.970Z,21.40
2018-09-18T03:14:30.221Z,20.97
2018-09-18T03:24:31.501Z,19.77
2018-09-18T03:34:32.903Z,20.23
2018-09-18T03:44:34.359Z,18.93
2018-09-18T03:54:35.879Z,20.87
2018-09-18T04:04:37.271Z,21.27
2018-09-18T04:14:39.183Z,19.27
2018-09-18T04:24:40.505Z,19.60
2018-09-18T04:34:41.876Z,18.43
2018-09-18T04:44:43.236Z,18.53
2018-09-18T04:54:45.332Z,19.53
2018-09-18T05:04:47.323Z,19.27
2018-09-18T05:14:48.578Z,21.10
2018-09-18T05:24:49.883Z,21.73
2018-09-18T05:34:51.151Z,22.00
2018-09-18T05:44:53.193Z,22.13
2018-09-18T05:54:54.441Z,19.93
2018-09-18T06:04:56.499Z,18.37
2018-09-18T06:14:57.735Z,19.20
2018-09-18T06:24:58.987Z,19.33
2018-09-18T06:35:00.226Z,19.07
2018-09-18T06:45:01.506Z,18.80
2018-09-18T06:55:04.702Z,18.00
2018-09-18T07:05:05.982Z,16.83
2018-09-18T07:15:07.249Z,16.97
2018-09-18T07:25:08.506Z,16.80
2018-09-18T07:35:09.830Z,15.60
2018-09-18T07:45:11.092Z,15.23
2018-09-18T07:55:12.858Z,15.03
2018-09-18T08:05:14.206Z,14.37
2018-09-18T08:15:15.459Z,13.07
2018-09-18T08:25:16.794Z,14.13
2018-09-18T08:35:17.995Z,12.55
2018-09-18T08:45:19.266Z,10.93
2018-09-18T08:55:24.463Z,9.38
2018-09-18T09:05:25.812Z,8.57
2018-09-18T09:15:27.106Z,9.10
2018-09-18T09:25:28.385Z,9.15
2018-09-18T09:35:29.642Z,8.77
2018-09-18T09:45:31.659Z,9.05
2018-09-18T09:55:33.687Z,8.15
2018-09-18T10:05:34.979Z,9.07
2018-09-18T10:15:36.256Z,9.18
2018-09-18T10:25:37.512Z,8.00
2018-09-18T10:35:38.776Z,8.82
2018-09-18T10:45:40.224Z,8.75
2018-09-18T10:55:41.474Z,9.10
2018-09-18T11:05:42.788Z,9.13
2018-09-18T11:15:44.472Z,8.85
2018-09-18T11:25:45.843Z,8.20
2018-09-18T11:35:47.104Z,7.70
2018-09-18T11:45:48.532Z,7.80
2018-09-18T11:55:49.713Z,7.18
2018-09-18T12:05:51.714Z,7.70
2018-09-18T12:15:52.955Z,7.85
2018-09-18T12:25:59.189Z,7.78
2018-09-18T12:36:00.507Z,8.13
2018-09-18T12:46:01.816Z,7.87
2018-09-18T12:56:03.135Z,7.75
2018-09-18T13:06:04.415Z,7.82
2018-09-18T13:16:05.649Z,7.45
2018-09-18T13:26:06.889Z,7.53
2018-09-18T13:36:08.161Z,7.43
2018-09-18T13:46:09.416Z,7.95
2018-09-18T13:56:10.701Z,7.43
2018-09-18T14:06:12.723Z,7.47
2018-09-18T14:16:14.872Z,6.85
2018-09-18T14:26:16.167Z,7.32
2018-09-18T14:36:17.429Z,7.47
2018-09-18T14:46:19.479Z,7.28
2018-09-18T14:56:20.755Z,6.68
2018-09-18T15:06:22.046Z,6.33
2018-09-18T15:16:23.684Z,6.90
2018-09-18T15:26:25.750Z,6.87
2018-09-18T15:36:27.780Z,6.07
2018-09-18T15:46:29.050Z,6.13
2018-09-18T15:56:31.119Z,6.75
2018-09-18T16:06:32.382Z,5.60
2018-09-18T16:16:33.695Z,6.07
2018-09-18T16:26:34.931Z,6.93
2018-09-18T16:36:36.211Z,8.47
2018-09-18T16:46:41.417Z,8.87
2018-09-18T16:56:43.965Z,10.43
2018-09-18T17:06:45.525Z,9.83
2018-09-18T17:16:47.082Z,10.00
2018-09-18T17:36:55.036Z,10.17
2018-09-18T17:46:57.433Z,9.13
2018-09-18T18:07:06.000Z,9.90
2018-09-18T18:17:07.246Z,10.17
2018-09-18T18:27:09.626Z,9.63
2018-09-18T18:37:10.898Z,10.00
2018-09-18T18:47:12.174Z,10.13
2018-09-18T18:57:13.444Z,9.87
2018-09-18T19:07:15.470Z,10.10
2018-09-18T19:17:16.743Z,9.93
2018-09-18T19:27:18.094Z,10.40
2018-09-18T19:37:19.365Z,10.80
2018-09-18T19:47:20.658Z,10.33
2018-09-18T19:57:21.920Z,10.43
2018-09-18T20:07:23.178Z,12.03
2018-09-18T20:17:24.422Z,12.43
2018-09-18T20:27:26.439Z,12.10
2018-09-18T20:37:28.457Z,12.40
2018-09-18T20:47:30.502Z,13.53
2018-09-18T20:57:31.758Z,12.77
2018-09-18T21:07:33.908Z,10.40
2018-09-18T21:17:35.171Z,11.87
2018-09-18T21:27:41.042Z,11.33
2018-09-18T21:37:42.321Z,11.97
2018-09-18T21:47:43.780Z,12.43
2018-09-18T21:57:45.083Z,11.20
2018-09-18T22:07:46.367Z,11.30
2018-09-18T22:17:48.363Z,11.43
2018-09-18T22:27:50.401Z,10.90
2018-09-18T22:37:51.655Z,11.07
2018-09-18T22:47:52.924Z,12.10
2018-09-18T22:57:54.188Z,12.40
2018-09-18T23:07:55.455Z,11.80
2018-09-18T23:17:56.719Z,11.93
2018-09-18T23:27:57.987Z,11.33
2018-09-18T23:38:04.743Z,11.57
2018-09-18T23:48:06.006Z,11.93
2018-09-18T23:58:07.325Z,12.03
